LTAC/ESB METAR and TAF weather

Enter ICAO airport designator
Station Type Date Time Source
LTAC METAR 2021/03/02 13:50 UTC NOAA

LTAC 021350Z 06014KT 9999 SCT040 06/M09 Q1022 NOSIG


Station Type Date Time Source
LTAC Decoded METAR 2021/03/02 13:50 UTC NOAA

Ankara / Esenboga, Turkey (LTAC) 40-07N 032-59E 949M
Mar 02, 2021 - 08:50 AM EST / 2021.03.02 1350 UTC
Wind: from the ENE (060 degrees) at 16 MPH (14 KT):0
Visibility: greater than 7 mile(s):0
Sky conditions: partly cloudy
Temperature: 42 F (6 C)
Dew Point: 15 F (-9 C)
Relative Humidity: 33%
Pressure (altimeter): 30.18 in. Hg (1022 hPa)
ob: LTAC 021350Z 06014KT 9999 SCT040 06/M09 Q1022 NOSIG
cycle: 14

Station Type Date Time Source
LTAC TAF 2021/03/02 12:03 UTC NOAA

TAF TAF LTAC 021040Z 0212/0312 05012KT 9999 SCT040
BECMG 0214/0216 VRB02KT
BECMG 0218/0220 CAVOK
BECMG 0306/0308 SCT040
TEMPO 0308/0312 01012KT

Example: see airport list